Time;durP1;ratioP1;P1;durP2;ratioP2;P2;SDS_P1;SDS_P2;PMS_P1;PMS_P2;Temp;Humidity;BMP_temperature;BMP_pressure;BME280_temperature;BME280_humidity;BME280_pressure;Samples;Min_cycle;Max_cycle;Signal;HPM_P1;HPM_P2
2021/04/04 00:01:04;;;;;;;1.60;0.80;;;22.60;30.90;;;;;;5052837;28;20381;-57
2021/04/04 00:03:30;;;;;;;1.60;0.82;;;22.50;30.80;;;;;;5053039;28;20393;-57
2021/04/04 00:05:55;;;;;;;1.67;0.90;;;22.50;30.90;;;;;;5052764;28;20910;-57
2021/04/04 00:08:21;;;;;;;1.70;0.82;;;22.50;30.80;;;;;;5052651;28;20405;-58
2021/04/04 00:10:47;;;;;;;1.40;0.73;;;22.50;30.80;;;;;;5052230;28;20389;-58
2021/04/04 00:13:12;;;;;;;1.48;0.85;;;22.50;30.80;;;;;;5052669;28;20373;-57
2021/04/04 00:15:40;;;;;;;1.60;0.90;;;22.50;31.50;;;;;;5052848;28;20876;-57
2021/04/04 00:18:06;;;;;;;1.63;0.80;;;22.50;30.80;;;;;;5052471;28;20381;-57
2021/04/04 00:20:32;;;;;;;1.30;0.90;;;22.50;30.70;;;;;;5052218;28;20424;-57
2021/04/04 00:22:58;;;;;;;1.30;0.90;;;22.60;30.90;;;;;;5052288;28;20749;-57
2021/04/04 00:25:23;;;;;;;1.30;0.70;;;22.50;30.80;;;;;;5052410;28;20883;-57
2021/04/04 00:27:49;;;;;;;1.20;0.75;;;22.50;30.80;;;;;;5052300;28;20547;-57
2021/04/04 00:30:19;;;;;;;1.20;0.80;;;22.50;30.70;;;;;;5052278;28;20389;-57
2021/04/04 00:32:44;;;;;;;1.23;0.80;;;22.50;30.90;;;;;;5051843;28;20425;-58
2021/04/04 00:35:13;;;;;;;1.40;0.80;;;22.50;30.70;;;;;;5052134;28;20414;-57
2021/04/04 00:37:39;;;;;;;1.30;0.73;;;22.50;30.80;;;;;;5052418;28;20434;-57
2021/04/04 00:40:14;;;;;;;1.10;0.60;;;22.50;30.60;;;;;;5052089;28;20389;-57
2021/04/04 00:42:39;;;;;;;1.60;0.80;;;22.50;30.80;;;;;;5051674;28;20390;-57
2021/04/04 00:45:16;;;;;;;1.70;0.83;;;22.50;30.70;;;;;;5051770;28;20547;-57
2021/04/04 00:47:42;;;;;;;1.15;0.70;;;22.50;30.80;;;;;;5051760;28;20401;-57
2021/04/04 00:50:09;;;;;;;1.63;0.90;;;22.50;30.80;;;;;;5051366;28;20415;-58
2021/04/04 00:52:35;;;;;;;2.90;0.90;;;22.50;30.60;;;;;;5041194;28;20522;-58
2021/04/04 00:55:02;;;;;;;2.20;0.88;;;22.50;30.10;;;;;;5040568;28;20423;-58
2021/04/04 00:57:28;;;;;;;2.65;0.90;;;22.60;30.30;;;;;;5039147;28;20395;-57
2021/04/04 00:59:54;;;;;;;1.50;0.73;;;22.60;30.40;;;;;;5041336;28;20428;-58
2021/04/04 01:02:21;;;;;;;1.67;0.77;;;22.70;30.60;;;;;;5040732;28;20387;-58
2021/04/04 01:04:49;;;;;;;1.52;0.82;;;22.70;30.50;;;;;;5044657;28;21050;-57
2021/04/04 01:07:15;;;;;;;3.20;0.82;;;22.60;30.50;;;;;;5040034;28;20406;-59
2021/04/04 01:09:41;;;;;;;1.50;0.80;;;22.60;30.40;;;;;;5035482;28;20399;-58
2021/04/04 01:12:18;;;;;;;1.77;0.80;;;22.60;30.40;;;;;;5031728;28;20383;-58
2021/04/04 01:14:54;;;;;;;2.38;0.90;;;22.60;30.40;;;;;;5031202;28;20391;-57
2021/04/04 01:17:22;;;;;;;1.95;0.80;;;22.60;30.30;;;;;;5031587;28;20870;-58
2021/04/04 01:20:07;;;;;;;1.58;0.90;;;22.60;30.30;;;;;;5031644;28;20399;-58
2021/04/04 01:22:57;;;;;;;1.92;0.73;;;22.60;30.30;;;;;;5031649;28;20387;-58
2021/04/04 01:25:38;;;;;;;1.58;0.93;;;22.60;30.40;;;;;;5031552;28;20510;-57
2021/04/04 01:28:11;;;;;;;1.38;0.80;;;22.60;30.40;;;;;;5031360;28;20415;-57
2021/04/04 01:30:40;;;;;;;1.58;0.90;;;22.60;30.50;;;;;;5031256;28;20864;-57
2021/04/04 01:33:14;;;;;;;1.67;0.95;;;22.60;30.50;;;;;;5031156;28;20413;-57
2021/04/04 01:35:45;;;;;;;2.28;1.05;;;22.60;30.50;;;;;;5031437;28;20474;-58
2021/04/04 01:38:13;;;;;;;1.85;1.00;;;22.60;30.50;;;;;;5031388;28;20402;-57
2021/04/04 01:40:42;;;;;;;1.33;0.80;;;22.60;30.50;;;;;;5031101;28;20379;-57
2021/04/04 01:43:09;;;;;;;1.98;1.00;;;22.60;30.50;;;;;;5031288;28;20387;-57
2021/04/04 01:45:35;;;;;;;1.77;1.20;;;22.60;30.50;;;;;;5031156;28;20446;-57
2021/04/04 01:48:03;;;;;;;1.88;1.10;;;22.60;31.10;;;;;;5031089;28;20779;-57
2021/04/04 01:50:29;;;;;;;1.88;1.20;;;22.60;30.50;;;;;;5031180;28;20391;-58
2021/04/04 01:52:56;;;;;;;3.05;1.30;;;22.60;30.40;;;;;;5029536;28;20791;-58
2021/04/04 01:55:24;;;;;;;2.05;1.33;;;22.60;30.50;;;;;;5031186;28;20731;-58
2021/04/04 01:57:51;;;;;;;2.20;1.40;;;22.60;30.40;;;;;;5031237;28;20790;-57
2021/04/04 02:00:21;;;;;;;2.10;1.40;;;22.60;30.40;;;;;;5035117;28;20947;-57
2021/04/04 02:02:48;;;;;;;2.45;1.60;;;22.60;30.40;;;;;;5034795;28;20397;-57
2021/04/04 02:05:14;;;;;;;2.50;1.63;;;22.60;30.40;;;;;;5034992;28;20394;-57
2021/04/04 02:07:46;;;;;;;2.33;1.40;;;22.60;30.40;;;;;;5034974;28;20406;-57
2021/04/04 02:10:14;;;;;;;2.45;1.70;;;22.60;30.40;;;;;;5034995;28;20406;-58
2021/04/04 02:12:42;;;;;;;2.53;1.50;;;22.60;30.40;;;;;;5034708;28;20394;-57
2021/04/04 02:15:13;;;;;;;2.40;1.60;;;22.60;30.50;;;;;;5034718;28;20732;-57
2021/04/04 02:17:41;;;;;;;2.20;1.38;;;22.60;30.50;;;;;;5034947;28;20463;-57
2021/04/04 02:20:10;;;;;;;1.95;1.48;;;22.60;30.50;;;;;;5034920;28;20392;-57
2021/04/04 02:22:38;;;;;;;2.15;1.60;;;22.60;30.50;;;;;;5034815;28;20387;-57
2021/04/04 02:25:05;;;;;;;2.22;1.67;;;22.60;30.50;;;;;;5034521;28;20799;-58
2021/04/04 02:27:31;;;;;;;2.22;1.50;;;22.60;30.40;;;;;;5034609;28;20394;-58
2021/04/04 02:29:57;;;;;;;2.37;1.40;;;22.50;30.30;;;;;;5034582;28;20444;-58
2021/04/04 02:32:26;;;;;;;2.45;1.58;;;22.60;30.40;;;;;;5034610;28;20393;-58
2021/04/04 02:34:56;;;;;;;2.33;1.35;;;22.60;30.30;;;;;;5034180;28;20379;-57
2021/04/04 02:37:22;;;;;;;2.13;1.45;;;22.60;30.30;;;;;;5034789;28;20406;-58
2021/04/04 02:39:52;;;;;;;2.13;1.40;;;22.60;30.40;;;;;;5034551;28;20387;-57
2021/04/04 02:42:21;;;;;;;1.73;1.35;;;22.60;30.40;;;;;;5034359;28;20387;-58
2021/04/04 02:44:48;;;;;;;1.70;1.23;;;22.60;30.30;;;;;;5033703;28;20434;-57
2021/04/04 02:47:14;;;;;;;2.50;1.50;;;22.60;30.30;;;;;;5034217;28;20396;-58
2021/04/04 02:49:47;;;;;;;2.10;1.30;;;22.60;30.30;;;;;;5034326;28;20429;-57
2021/04/04 02:52:16;;;;;;;2.08;1.40;;;22.60;30.30;;;;;;5034173;28;20383;-58
2021/04/04 02:54:43;;;;;;;2.15;1.30;;;22.50;30.30;;;;;;5034202;28;20389;-58
2021/04/04 02:57:09;;;;;;;2.08;1.40;;;22.60;30.40;;;;;;5033952;28;20382;-58
2021/04/04 02:59:43;;;;;;;1.70;1.17;;;22.60;30.40;;;;;;5034154;28;20391;-58
2021/04/04 03:02:12;;;;;;;1.70;1.20;;;22.50;30.40;;;;;;5033998;28;20395;-58
2021/04/04 03:04:38;;;;;;;1.65;1.02;;;22.50;30.40;;;;;;5034024;28;20465;-58
2021/04/04 03:07:10;;;;;;;1.80;1.10;;;22.50;30.50;;;;;;5033599;28;20415;-57
2021/04/04 03:09:40;;;;;;;1.60;1.10;;;22.50;30.40;;;;;;5032931;28;20419;-58
2021/04/04 03:12:07;;;;;;;1.80;1.10;;;22.50;30.40;;;;;;5033609;28;20816;-58
2021/04/04 03:14:34;;;;;;;1.65;1.02;;;22.50;30.30;;;;;;5033816;28;20391;-57
2021/04/04 03:17:01;;;;;;;1.60;1.10;;;22.50;30.40;;;;;;5033355;28;20391;-57
2021/04/04 03:19:28;;;;;;;2.00;1.30;;;22.50;30.30;;;;;;5033715;28;20414;-57
2021/04/04 03:21:55;;;;;;;1.60;1.13;;;22.50;30.30;;;;;;5033686;28;20383;-57
2021/04/04 03:24:23;;;;;;;2.22;1.10;;;22.50;30.30;;;;;;5033626;28;20384;-57
2021/04/04 03:26:49;;;;;;;1.48;1.10;;;22.50;30.30;;;;;;5033166;28;20395;-57
2021/04/04 03:29:16;;;;;;;1.70;1.00;;;22.50;30.30;;;;;;5033425;28;20530;-57
2021/04/04 03:31:43;;;;;;;2.47;1.13;;;22.50;30.30;;;;;;5033432;28;20462;-57
2021/04/04 03:34:09;;;;;;;2.08;1.00;;;22.50;30.30;;;;;;5033400;28;20391;-57
2021/04/04 03:36:35;;;;;;;2.10;1.10;;;22.50;30.30;;;;;;5033322;28;20852;-57
2021/04/04 03:39:02;;;;;;;1.67;0.93;;;22.50;30.30;;;;;;5032865;28;21252;-57
2021/04/04 03:41:30;;;;;;;1.65;0.82;;;22.50;30.40;;;;;;5033352;28;20390;-57
2021/04/04 03:43:57;;;;;;;1.55;0.90;;;22.50;30.40;;;;;;5033214;28;20399;-57
2021/04/04 03:46:29;;;;;;;1.70;1.15;;;22.50;30.40;;;;;;5033005;28;20506;-57
2021/04/04 03:48:56;;;;;;;1.65;0.93;;;22.40;30.40;;;;;;5032535;28;20472;-57
2021/04/04 03:51:27;;;;;;;1.63;0.90;;;22.40;30.40;;;;;;5033087;28;20390;-57
2021/04/04 03:53:55;;;;;;;1.45;0.98;;;22.50;30.50;;;;;;5033177;28;20391;-57
2021/04/04 03:56:31;;;;;;;1.80;1.00;;;22.50;30.50;;;;;;5033023;28;20390;-58
2021/04/04 03:59:00;;;;;;;1.75;0.95;;;22.40;30.40;;;;;;5032534;28;20398;-58
2021/04/04 04:01:29;;;;;;;1.60;1.00;;;22.40;30.30;;;;;;5033145;28;20414;-57
2021/04/04 04:03:57;;;;;;;1.52;0.90;;;22.50;30.40;;;;;;5032841;28;20475;-58
2021/04/04 04:06:24;;;;;;;1.85;0.93;;;22.50;30.40;;;;;;5032873;28;20486;-57
2021/04/04 04:08:50;;;;;;;1.30;0.73;;;22.40;30.30;;;;;;5032317;28;20418;-58
2021/04/04 04:11:17;;;;;;;2.10;0.98;;;22.40;30.30;;;;;;5032684;28;20395;-58
2021/04/04 04:13:44;;;;;;;1.10;0.68;;;22.40;30.20;;;;;;5032738;28;20567;-58
2021/04/04 04:16:12;;;;;;;1.30;0.80;;;22.40;30.30;;;;;;5032597;28;20399;-58
2021/04/04 04:18:45;;;;;;;1.42;0.90;;;22.40;30.30;;;;;;5032630;28;20394;-58
2021/04/04 04:21:15;;;;;;;1.20;0.75;;;22.40;30.30;;;;;;5032081;28;20425;-58
2021/04/04 04:23:42;;;;;;;1.40;0.80;;;22.40;30.30;;;;;;5032608;28;20391;-58
2021/04/04 04:26:16;;;;;;;1.50;0.80;;;22.40;30.30;;;;;;5032526;28;20379;-58
2021/04/04 04:28:42;;;;;;;1.30;0.70;;;22.40;30.30;;;;;;5032447;28;20481;-58
2021/04/04 04:31:20;;;;;;;2.00;0.95;;;22.40;30.30;;;;;;5031925;28;20748;-57
2021/04/04 04:33:51;;;;;;;1.40;0.80;;;22.40;30.40;;;;;;5032366;28;20474;-58
2021/04/04 04:36:17;;;;;;;1.13;0.70;;;22.40;30.30;;;;;;5032340;28;20429;-57
2021/04/04 04:38:43;;;;;;;1.38;0.80;;;22.40;30.30;;;;;;5032330;28;20444;-57
2021/04/04 04:41:11;;;;;;;1.42;0.80;;;22.40;30.40;;;;;;5032093;28;20399;-58
2021/04/04 04:43:42;;;;;;;1.70;1.00;;;22.40;30.30;;;;;;5032276;28;20395;-57
2021/04/04 04:46:08;;;;;;;1.30;0.82;;;22.40;30.90;;;;;;5032005;28;20469;-57
2021/04/04 04:48:34;;;;;;;1.25;0.70;;;22.40;30.20;;;;;;5032074;28;20415;-57
2021/04/04 04:51:00;;;;;;;1.20;0.80;;;22.40;30.20;;;;;;5031649;28;20918;-57
2021/04/04 04:53:26;;;;;;;1.20;0.80;;;22.40;30.20;;;;;;5032139;28;20430;-57
2021/04/04 04:56:00;;;;;;;1.52;0.80;;;22.40;30.20;;;;;;5032048;28;20415;-57
2021/04/04 04:58:28;;;;;;;1.60;0.80;;;22.40;30.20;;;;;;5032261;28;20406;-57
2021/04/04 05:00:58;;;;;;;1.40;0.80;;;22.40;30.20;;;;;;5031492;28;20422;-57
2021/04/04 05:03:24;;;;;;;1.50;0.70;;;22.40;30.20;;;;;;5031971;28;20454;-57
2021/04/04 05:05:50;;;;;;;1.70;0.90;;;22.40;30.20;;;;;;5031937;28;20387;-57
2021/04/04 05:08:19;;;;;;;1.75;0.82;;;22.40;30.10;;;;;;5031638;28;20548;-57
2021/04/04 05:10:46;;;;;;;1.20;0.80;;;22.30;30.10;;;;;;5031784;28;20387;-58
2021/04/04 05:13:13;;;;;;;1.60;1.00;;;22.30;30.20;;;;;;5031413;28;20886;-57
2021/04/04 05:15:41;;;;;;;1.35;0.93;;;22.40;30.20;;;;;;5031689;28;20379;-57
2021/04/04 05:18:07;;;;;;;1.75;0.90;;;22.30;30.20;;;;;;5031586;28;20398;-57
2021/04/04 05:20:34;;;;;;;2.05;0.93;;;22.30;30.40;;;;;;5031634;28;20387;-57
2021/04/04 05:23:01;;;;;;;1.63;1.10;;;22.40;30.70;;;;;;5031007;28;20403;-57
2021/04/04 05:25:28;;;;;;;1.75;1.10;;;22.40;31.00;;;;;;5031618;28;20442;-58
2021/04/04 05:27:57;;;;;;;4.13;1.10;;;22.40;31.10;;;;;;5031614;28;20413;-57
2021/04/04 05:30:25;;;;;;;2.92;1.08;;;22.40;31.40;;;;;;5031526;28;20398;-58
2021/04/04 05:32:53;;;;;;;2.97;1.10;;;22.30;31.00;;;;;;5030573;28;20392;-57
2021/04/04 05:35:24;;;;;;;1.63;0.90;;;22.40;30.30;;;;;;5031435;28;20422;-58
2021/04/04 05:37:51;;;;;;;2.70;1.10;;;22.40;30.20;;;;;;5031411;28;20442;-58
2021/04/04 05:40:23;;;;;;;2.43;1.30;;;22.30;30.30;;;;;;5031325;28;20391;-57
2021/04/04 05:43:11;;;;;;;2.78;1.00;;;22.30;30.40;;;;;;5031117;28;20862;-58
2021/04/04 05:45:47;;;;;;;2.47;0.90;;;22.30;30.60;;;;;;5031143;28;20415;-58
2021/04/04 05:48:42;;;;;;;3.17;1.07;;;22.30;30.50;;;;;;5031265;28;20514;-58
2021/04/04 05:51:19;;;;;;;2.30;1.17;;;22.30;30.60;;;;;;5030776;28;20458;-57
2021/04/04 05:54:05;;;;;;;2.10;0.90;;;22.30;30.50;;;;;;5031242;28;20425;-58
2021/04/04 05:56:40;;;;;;;2.00;1.05;;;22.30;30.60;;;;;;5030889;28;20403;-57
2021/04/04 05:59:13;;;;;;;2.00;1.00;;;22.20;30.50;;;;;;5030712;28;20394;-57
2021/04/04 06:01:53;;;;;;;1.45;0.80;;;22.20;30.50;;;;;;5031174;28;20470;-57
2021/04/04 06:04:41;;;;;;;1.67;0.80;;;22.30;30.60;;;;;;5029888;28;20386;-57
2021/04/04 06:07:34;;;;;;;2.40;1.02;;;22.30;30.60;;;;;;5030594;28;20395;-57
2021/04/04 06:10:29;;;;;;;2.38;1.00;;;22.20;30.80;;;;;;5029788;28;20464;-57
2021/04/04 06:13:01;;;;;;;2.67;1.20;;;22.20;30.70;;;;;;5012317;28;20406;-58
2021/04/04 06:15:36;;;;;;;5.00;1.20;;;22.20;31.00;;;;;;5031013;28;20421;-58
2021/04/04 06:18:23;;;;;;;5.60;1.20;;;22.20;31.20;;;;;;5031013;28;20497;-58
2021/04/04 06:21:02;;;;;;;5.47;1.27;;;22.20;31.20;;;;;;5031024;28;20934;-57
2021/04/04 06:23:45;;;;;;;4.07;1.48;;;22.30;31.10;;;;;;5030915;28;20418;-57
2021/04/04 06:26:30;;;;;;;3.08;1.23;;;22.30;31.00;;;;;;5030970;28;20435;-58
2021/04/04 06:28:59;;;;;;;3.30;1.13;;;22.30;31.10;;;;;;5030359;28;20415;-58
2021/04/04 06:31:32;;;;;;;2.20;1.05;;;22.30;31.10;;;;;;5030904;28;20391;-57
2021/04/04 06:34:08;;;;;;;4.90;1.38;;;22.30;31.70;;;;;;5030816;28;20387;-59
2021/04/04 06:36:59;;;;;;;4.35;1.33;;;22.30;31.70;;;;;;5030962;28;20379;-58
2021/04/04 06:39:25;;;;;;;5.60;1.33;;;22.30;31.30;;;;;;5030886;28;20427;-58
2021/04/04 06:41:53;;;;;;;3.05;1.20;;;22.30;31.40;;;;;;5029599;28;20445;-57
2021/04/04 06:44:19;;;;;;;3.38;1.15;;;22.30;31.60;;;;;;5031268;28;20393;-57
2021/04/04 06:46:54;;;;;;;3.00;1.02;;;22.40;31.90;;;;;;5032893;28;20896;-57
2021/04/04 06:49:29;;;;;;;3.92;1.13;;;22.40;32.00;;;;;;5033791;28;20421;-57
2021/04/04 06:52:02;;;;;;;6.03;1.13;;;22.50;31.70;;;;;;5034102;28;20430;-57
2021/04/04 06:55:07;;;;;;;4.78;1.17;;;22.50;31.90;;;;;;5034127;28;20953;-57
2021/04/04 06:58:05;;;;;;;2.65;1.30;;;22.50;32.50;;;;;;4992503;28;20752;-57
2021/04/04 07:01:05;;;;;;;5.00;1.15;;;22.60;31.90;;;;;;5034012;28;20414;-57
2021/04/04 07:03:44;;;;;;;5.93;1.20;;;22.60;32.00;;;;;;5033692;28;20387;-58
2021/04/04 07:06:19;;;;;;;5.53;1.10;;;22.60;31.60;;;;;;5033897;28;20399;-57
2021/04/04 07:09:10;;;;;;;5.30;1.20;;;22.60;32.00;;;;;;5033803;28;20953;-57
2021/04/04 07:12:07;;;;;;;4.75;1.20;;;22.60;31.60;;;;;;5033966;28;20414;-57
2021/04/04 07:15:04;;;;;;;3.03;1.67;;;22.60;31.60;;;;;;5033867;28;20433;-57
2021/04/04 07:17:46;;;;;;;3.55;1.60;;;22.60;31.40;;;;;;5033892;28;20739;-57
2021/04/04 07:20:14;;;;;;;4.68;1.48;;;22.60;31.10;;;;;;5033724;28;20437;-58
2021/04/04 07:23:01;;;;;;;2.03;1.20;;;22.70;31.00;;;;;;5033465;28;20437;-58
2021/04/04 07:25:59;;;;;;;4.03;1.10;;;22.70;31.00;;;;;;5033649;28;20863;-57
2021/04/04 07:28:44;;;;;;;2.58;1.40;;;22.70;30.70;;;;;;5033509;28;20798;-57
2021/04/04 07:31:14;;;;;;;3.17;1.10;;;22.70;30.50;;;;;;5033081;28;20392;-58
2021/04/04 07:34:04;;;;;;;2.08;1.10;;;22.70;30.60;;;;;;5033476;28;20448;-57
2021/04/04 07:37:00;;;;;;;3.42;1.17;;;22.80;30.60;;;;;;5033423;28;20387;-57
2021/04/04 07:39:42;;;;;;;1.67;1.00;;;22.80;30.70;;;;;;5033426;28;20423;-57
2021/04/04 07:42:33;;;;;;;1.48;0.90;;;22.90;30.50;;;;;;5033574;28;20401;-57
2021/04/04 07:45:21;;;;;;;1.95;0.90;;;22.90;30.60;;;;;;5032638;28;20914;-58
2021/04/04 07:48:23;;;;;;;2.55;1.13;;;22.90;30.70;;;;;;5033009;28;20985;-57
2021/04/04 07:51:12;;;;;;;2.60;1.17;;;22.90;31.10;;;;;;5033103;28;20922;-57
2021/04/04 07:53:57;;;;;;;3.10;1.30;;;22.90;30.60;;;;;;5032817;28;20804;-57
2021/04/04 07:56:52;;;;;;;3.42;1.20;;;22.90;30.20;;;;;;5032440;28;20390;-57
2021/04/04 07:59:52;;;;;;;4.35;1.45;;;22.90;31.20;;;;;;5032572;28;20395;-57
2021/04/04 08:02:29;;;;;;;3.78;1.45;;;22.90;29.70;;;;;;5026784;28;20401;-57
2021/04/04 08:05:15;;;;;;;6.57;1.53;;;22.90;29.10;;;;;;5052429;28;20389;-58
2021/04/04 08:08:00;;;;;;;6.25;1.38;;;22.90;29.10;;;;;;5052586;28;20873;-57
2021/04/04 08:10:43;;;;;;;3.78;1.40;;;22.90;29.40;;;;;;5052222;28;20409;-57
2021/04/04 08:13:12;;;;;;;3.08;1.25;;;22.90;29.10;;;;;;5052125;28;20451;-57
2021/04/04 08:16:08;;;;;;;2.95;1.10;;;22.90;29.00;;;;;;5052617;28;20396;-57
2021/04/04 08:18:35;;;;;;;3.13;1.10;;;22.90;29.20;;;;;;5052633;28;20382;-57
2021/04/04 08:21:10;;;;;;;4.00;1.20;;;22.90;29.00;;;;;;5049969;28;20812;-58
2021/04/04 08:23:55;;;;;;;2.88;1.02;;;22.80;29.00;;;;;;5064989;28;20788;-60
2021/04/04 08:26:29;;;;;;;3.90;1.13;;;22.80;29.10;;;;;;5047451;28;20481;-57
2021/04/04 08:29:23;;;;;;;2.10;0.90;;;22.90;29.10;;;;;;5039756;28;20900;-57
2021/04/04 08:32:18;;;;;;;2.38;1.05;;;22.80;29.20;;;;;;5037712;28;20878;-57
2021/04/04 08:34:57;;;;;;;3.00;1.00;;;22.80;29.20;;;;;;5033525;28;20798;-60
2021/04/04 08:37:47;;;;;;;2.22;1.10;;;22.90;29.20;;;;;;5038519;28;20452;-58
2021/04/04 08:40:18;;;;;;;2.40;1.00;;;22.90;29.20;;;;;;5037098;28;20387;-57
2021/04/04 08:42:46;;;;;;;2.38;1.00;;;22.90;29.30;;;;;;5038362;28;20407;-58
2021/04/04 08:45:24;;;;;;;2.45;1.00;;;22.90;29.40;;;;;;5040629;28;20453;-60
2021/04/04 08:47:52;;;;;;;2.95;1.00;;;22.90;29.50;;;;;;5037583;28;20411;-58
2021/04/04 08:50:19;;;;;;;2.38;1.10;;;22.90;29.60;;;;;;5037551;28;20440;-58
2021/04/04 08:53:10;;;;;;;2.28;1.00;;;22.80;29.60;;;;;;5061371;28;20389;-58
2021/04/04 08:55:38;;;;;;;2.35;0.93;;;22.90;29.60;;;;;;5037671;28;20398;-58
2021/04/04 08:58:06;;;;;;;2.38;1.10;;;22.90;29.70;;;;;;5040603;28;20397;-58
2021/04/04 09:00:35;;;;;;;1.85;0.90;;;23.00;29.60;;;;;;5039217;28;20411;-58
2021/04/04 09:03:15;;;;;;;1.95;0.90;;;23.00;29.60;;;;;;5037954;28;20484;-58
2021/04/04 09:05:41;;;;;;;2.30;0.90;;;23.00;29.60;;;;;;5039010;28;20393;-59
2021/04/04 09:08:06;;;;;;;2.33;1.10;;;23.10;29.60;;;;;;5037330;28;20441;-58
2021/04/04 09:10:35;;;;;;;1.80;1.00;;;23.20;29.50;;;;;;5039548;28;20876;-58
2021/04/04 09:13:08;;;;;;;1.70;0.88;;;23.20;29.40;;;;;;5037203;28;20379;-58
2021/04/04 09:15:43;;;;;;;1.90;1.10;;;23.20;29.50;;;;;;5038910;28;20421;-58
2021/04/04 09:18:09;;;;;;;2.00;1.00;;;23.30;29.50;;;;;;5037223;28;20760;-60
2021/04/04 09:20:40;;;;;;;2.03;1.00;;;23.40;29.30;;;;;;5039421;28;20397;-58
2021/04/04 09:23:07;;;;;;;2.00;1.08;;;23.40;29.20;;;;;;5040225;28;20879;-58
2021/04/04 09:25:36;;;;;;;2.55;1.20;;;23.40;29.20;;;;;;5039063;28;20885;-58
2021/04/04 09:28:07;;;;;;;3.65;1.55;;;23.40;29.30;;;;;;5040096;28;20429;-57
2021/04/04 09:30:40;;;;;;;3.53;1.40;;;23.50;29.20;;;;;;5040813;28;20389;-58
2021/04/04 09:33:16;;;;;;;4.28;1.38;;;23.60;29.30;;;;;;5031139;28;20423;-58
2021/04/04 09:35:43;;;;;;;3.72;1.35;;;23.70;29.30;;;;;;5031555;28;20419;-58
2021/04/04 09:38:12;;;;;;;2.50;1.10;;;23.80;29.30;;;;;;5031348;28;20968;-58
2021/04/04 09:40:40;;;;;;;3.30;1.20;;;23.80;29.30;;;;;;5032610;28;20398;-58
2021/04/04 09:43:12;;;;;;;2.10;1.10;;;23.80;29.30;;;;;;5037761;28;20395;-58
2021/04/04 09:45:38;;;;;;;1.98;1.10;;;23.80;29.40;;;;;;5037747;28;20441;-57
2021/04/04 09:48:21;;;;;;;2.60;1.05;;;23.90;29.50;;;;;;5039653;28;20765;-57
2021/04/04 09:51:04;;;;;;;2.27;0.90;;;23.90;29.50;;;;;;5036981;28;20397;-58
2021/04/04 09:53:56;;;;;;;1.67;0.95;;;24.00;29.50;;;;;;5035857;28;20462;-58
2021/04/04 09:56:30;;;;;;;1.80;1.10;;;24.00;29.40;;;;;;5037067;28;20737;-58
2021/04/04 09:58:57;;;;;;;2.83;0.90;;;24.00;29.30;;;;;;5029811;28;20383;-57
2021/04/04 10:01:25;;;;;;;2.07;0.90;;;24.00;29.40;;;;;;5029568;28;20461;-57
2021/04/04 10:04:05;;;;;;;2.23;0.97;;;24.10;29.50;;;;;;5029761;28;20427;-57
2021/04/04 10:06:36;;;;;;;1.58;0.85;;;24.10;29.40;;;;;;5029933;28;20395;-59
2021/04/04 10:09:04;;;;;;;2.72;1.10;;;24.20;29.30;;;;;;5031575;28;20421;-58
2021/04/04 10:11:32;;;;;;;2.03;1.00;;;24.20;29.10;;;;;;5036569;28;20413;-58
2021/04/04 10:14:10;;;;;;;2.33;0.98;;;24.30;29.40;;;;;;5038743;28;20403;-58
2021/04/04 10:16:37;;;;;;;2.03;1.02;;;24.30;29.20;;;;;;5036204;28;20465;-58
2021/04/04 10:19:08;;;;;;;2.03;0.85;;;24.40;29.20;;;;;;5037530;28;20391;-58
2021/04/04 10:21:35;;;;;;;1.48;0.80;;;24.50;29.20;;;;;;5042504;28;21237;-58
2021/04/04 10:24:23;;;;;;;1.40;0.90;;;24.50;29.00;;;;;;5043056;28;20407;-58
2021/04/04 10:27:26;;;;;;;1.67;0.80;;;24.60;29.00;;;;;;5054347;28;20412;-59
2021/04/04 10:30:15;;;;;;;1.70;0.77;;;24.60;29.00;;;;;;5054398;28;20420;-58
2021/04/04 10:32:49;;;;;;;1.92;1.00;;;24.60;29.00;;;;;;5054705;28;20400;-58
2021/04/04 10:35:35;;;;;;;2.10;1.00;;;24.60;28.80;;;;;;5045716;28;20503;-59
2021/04/04 10:38:25;;;;;;;2.85;0.80;;;24.60;28.80;;;;;;5048863;28;20435;-58
2021/04/04 10:40:54;;;;;;;1.95;0.80;;;24.60;28.70;;;;;;5046818;28;20490;-58
2021/04/04 10:43:23;;;;;;;1.70;0.90;;;24.60;28.60;;;;;;5032522;28;20453;-59
2021/04/04 10:46:07;;;;;;;1.33;0.88;;;24.60;29.00;;;;;;5034019;28;20407;-58
2021/04/04 10:48:39;;;;;;;1.77;0.70;;;24.60;29.10;;;;;;5037998;28;20454;-58
2021/04/04 10:51:06;;;;;;;1.20;0.80;;;24.50;29.10;;;;;;5044659;28;20397;-58
2021/04/04 10:53:33;;;;;;;1.30;0.80;;;24.50;29.10;;;;;;5033475;28;20386;-58
2021/04/04 10:56:00;;;;;;;1.30;0.80;;;24.50;29.20;;;;;;5039844;28;20399;-58
2021/04/04 10:58:27;;;;;;;1.38;0.80;;;24.50;29.20;;;;;;5053178;28;20464;-59
2021/04/04 11:00:57;;;;;;;2.50;0.90;;;24.50;29.20;;;;;;5053382;28;20393;-59
2021/04/04 11:03:24;;;;;;;3.33;0.90;;;24.50;28.90;;;;;;5053482;28;20401;-58
2021/04/04 11:05:51;;;;;;;8.88;1.88;;;24.50;29.00;;;;;;5053893;28;20397;-58
2021/04/04 11:08:17;;;;;;;7.32;1.98;;;24.50;28.10;;;;;;5053612;28;20413;-58
2021/04/04 11:10:43;;;;;;;10.95;2.10;;;24.50;27.30;;;;;;5053763;28;20488;-58
2021/04/04 11:13:12;;;;;;;6.67;1.57;;;24.50;26.80;;;;;;5053198;28;20389;-60
2021/04/04 11:15:41;;;;;;;4.68;1.60;;;24.60;26.40;;;;;;5053596;28;20483;-58
2021/04/04 11:18:21;;;;;;;4.25;1.35;;;24.60;26.70;;;;;;5053588;28;20401;-60
2021/04/04 11:20:52;;;;;;;3.60;1.10;;;24.60;26.90;;;;;;5042926;28;20431;-59
2021/04/04 11:23:19;;;;;;;3.73;1.00;;;24.60;27.00;;;;;;5043469;28;20794;-57
2021/04/04 11:25:45;;;;;;;3.80;1.00;;;24.60;27.10;;;;;;5042186;28;20397;-58
2021/04/04 11:28:16;;;;;;;3.10;0.90;;;24.60;27.40;;;;;;5043311;28;20405;-57
2021/04/04 11:30:44;;;;;;;3.03;1.10;;;24.70;27.50;;;;;;5044910;28;20412;-58
2021/04/04 11:33:24;;;;;;;2.63;0.80;;;24.70;27.60;;;;;;5042081;28;20507;-60
2021/04/04 11:36:06;;;;;;;3.40;0.93;;;24.80;27.70;;;;;;5043448;28;20828;-57
2021/04/04 11:38:35;;;;;;;4.50;0.90;;;24.80;27.60;;;;;;5039789;28;20387;-61
2021/04/04 11:41:12;;;;;;;3.60;1.30;;;24.80;27.80;;;;;;5041961;28;20383;-58
2021/04/04 11:43:38;;;;;;;2.75;0.80;;;24.90;27.90;;;;;;5038546;28;20883;-58
2021/04/04 11:46:04;;;;;;;5.00;1.00;;;24.90;27.80;;;;;;5033144;28;20509;-59
2021/04/04 11:48:34;;;;;;;3.50;0.93;;;25.00;28.10;;;;;;5033183;28;20414;-58
2021/04/04 11:51:12;;;;;;;1.80;0.73;;;25.00;28.00;;;;;;5033121;28;20391;-59
2021/04/04 11:53:43;;;;;;;2.78;0.80;;;25.10;28.00;;;;;;5033158;28;20382;-59
2021/04/04 11:56:09;;;;;;;4.80;0.90;;;25.10;27.90;;;;;;5031795;28;20493;-59
2021/04/04 11:58:35;;;;;;;1.53;0.73;;;25.30;28.20;;;;;;5033086;28;20419;-60
2021/04/04 12:01:01;;;;;;;3.05;0.80;;;25.30;28.00;;;;;;5040759;28;20433;-59
2021/04/04 12:03:27;;;;;;;2.08;0.90;;;25.40;28.10;;;;;;5052342;28;20435;-58
2021/04/04 12:05:53;;;;;;;1.77;0.60;;;25.40;28.00;;;;;;5052698;28;20561;-58
2021/04/04 12:08:29;;;;;;;2.40;0.80;;;25.40;27.90;;;;;;5052518;28;20504;-59
2021/04/04 12:10:56;;;;;;;2.65;0.75;;;25.40;28.00;;;;;;5052217;28;20386;-60
2021/04/04 12:13:21;;;;;;;1.90;0.80;;;25.50;28.00;;;;;;5051023;28;20881;-58
2021/04/04 12:15:47;;;;;;;1.90;0.70;;;25.60;28.00;;;;;;5051373;28;20424;-59
2021/04/04 12:18:13;;;;;;;2.40;0.80;;;25.60;27.90;;;;;;5051253;28;20812;-59
2021/04/04 12:20:39;;;;;;;2.10;0.80;;;25.70;28.00;;;;;;5051237;28;20576;-58
2021/04/04 12:23:12;;;;;;;2.53;0.70;;;25.70;27.70;;;;;;5051088;28;20482;-59
2021/04/04 12:25:38;;;;;;;2.50;0.90;;;25.60;27.80;;;;;;5051278;28;21050;-61
2021/04/04 12:28:04;;;;;;;1.67;0.90;;;25.60;27.80;;;;;;5050998;28;20413;-58
2021/04/04 12:30:33;;;;;;;2.08;0.70;;;25.60;27.70;;;;;;5050926;28;20396;-58
2021/04/04 12:33:06;;;;;;;2.10;0.73;;;25.60;27.60;;;;;;5051022;28;20409;-58
2021/04/04 12:35:33;;;;;;;1.83;0.80;;;25.60;27.80;;;;;;5050525;28;20374;-58
2021/04/04 12:37:59;;;;;;;1.50;0.65;;;25.60;27.80;;;;;;5050752;28;20889;-58
2021/04/04 12:40:25;;;;;;;3.07;0.60;;;25.70;27.90;;;;;;5050912;28;20388;-58
2021/04/04 12:42:59;;;;;;;1.75;0.60;;;25.80;27.90;;;;;;5050547;28;20396;-58
2021/04/04 12:45:30;;;;;;;1.98;0.70;;;25.80;27.80;;;;;;5050205;28;20428;-58
2021/04/04 12:47:55;;;;;;;1.52;0.70;;;25.90;27.80;;;;;;5050625;28;20405;-58
2021/04/04 12:50:22;;;;;;;1.83;0.80;;;25.90;27.60;;;;;;5050692;28;20400;-58
2021/04/04 12:52:49;;;;;;;1.90;0.80;;;26.00;27.70;;;;;;5050692;28;20390;-58
2021/04/04 12:55:18;;;;;;;1.42;0.60;;;26.00;27.60;;;;;;5049948;28;20386;-58
2021/04/04 12:57:47;;;;;;;1.70;0.60;;;26.10;27.60;;;;;;5050515;28;20428;-58
2021/04/04 13:00:22;;;;;;;1.03;0.60;;;26.10;27.50;;;;;;5050494;28;20457;-58
2021/04/04 13:03:10;;;;;;;1.55;0.70;;;26.20;27.60;;;;;;5050628;28;20896;-58
2021/04/04 13:05:43;;;;;;;1.45;0.75;;;26.20;27.50;;;;;;5050253;28;20394;-58
2021/04/04 13:08:16;;;;;;;1.38;0.68;;;26.30;27.50;;;;;;5050262;28;21106;-59
2021/04/04 13:10:44;;;;;;;1.20;0.60;;;26.30;27.40;;;;;;5050489;28;20531;-58
2021/04/04 13:13:15;;;;;;;1.52;0.60;;;26.40;27.50;;;;;;5050073;28;20934;-58
2021/04/04 13:15:41;;;;;;;1.85;0.70;;;26.40;27.30;;;;;;5050312;28;20873;-58